Time;durP1;ratioP1;P1;durP2;ratioP2;P2;SDS_P1;SDS_P2;PMS_P1;PMS_P2;Temp;Humidity;BMP_temperature;BMP_pressure;BME280_temperature;BME280_humidity;BME280_pressure;Samples;Min_cycle;Max_cycle;Signal;HPM_P1;HPM_P2
2022/06/05 00:01:37;;;;;;;11.48;2.13;;;;;;;41.09;7.00;100446.84;5095730;28;20051;-66
2022/06/05 00:04:46;;;;;;;9.98;2.40;;;;;;;41.61;6.89;100448.31;5095961;28;20032;-66
2022/06/05 00:07:29;;;;;;;12.95;2.60;;;;;;;40.72;7.43;100435.56;5095530;28;20123;-65
2022/06/05 00:10:20;;;;;;;10.15;2.03;;;;;;;40.59;7.66;100446.41;5095502;28;20039;-66
2022/06/05 00:12:59;;;;;;;15.20;2.40;;;;;;;40.70;7.24;100438.13;5095740;28;20040;-65
2022/06/05 00:15:27;;;;;;;13.65;2.45;;;;;;;40.73;7.33;100443.66;5095569;28;20036;-66
2022/06/05 00:17:54;;;;;;;8.73;2.00;;;;;;;40.84;7.44;100437.47;5095661;28;20027;-66
2022/06/05 00:20:22;;;;;;;17.60;2.67;;;;;;;41.13;7.64;100436.09;5095202;28;20098;-67
2022/06/05 00:22:49;;;;;;;13.35;1.92;;;;;;;40.52;7.40;100443.88;5094399;28;20040;-67
2022/06/05 00:25:16;;;;;;;11.20;1.90;;;;;;;40.55;7.46;100425.81;5095621;28;20040;-68
2022/06/05 00:28:14;;;;;;;9.25;1.77;;;;;;;40.74;7.46;100430.97;5095321;28;20020;-67
2022/06/05 00:31:12;;;;;;;8.13;1.83;;;;;;;40.65;7.42;100435.94;5095074;28;20078;-66
2022/06/05 00:33:40;;;;;;;5.80;1.40;;;;;;;40.91;7.34;100425.72;5095837;28;20028;-66
2022/06/05 00:36:25;;;;;;;5.20;1.70;;;;;;;40.36;7.11;100428.69;5097973;28;20020;-65
2022/06/05 00:39:13;;;;;;;12.50;2.13;;;;;;;39.85;7.46;100432.19;5096690;28;20036;-66
2022/06/05 00:42:03;;;;;;;9.57;2.53;;;;;;;40.14;7.18;100425.25;5098364;28;20093;-66
2022/06/05 00:44:52;;;;;;;9.20;2.70;;;;;;;39.12;7.54;100420.66;5095144;28;20044;-66
2022/06/05 00:47:23;;;;;;;8.32;2.42;;;;;;;39.53;7.16;100432.81;5095099;28;20395;-67
2022/06/05 00:49:55;;;;;;;11.02;2.30;;;;;;;39.25;7.81;100414.88;5095120;28;20033;-67
2022/06/05 00:52:25;;;;;;;13.23;1.92;;;;;;;39.46;7.29;100416.78;5095259;28;20115;-66
2022/06/05 00:54:52;;;;;;;14.68;3.28;;;;;;;38.54;7.77;100427.00;5093760;28;20158;-65
2022/06/05 00:57:20;;;;;;;11.05;3.72;;;;;;;38.60;7.43;100425.16;5093957;28;20122;-65
2022/06/05 00:59:48;;;;;;;14.90;2.67;;;;;;;38.47;7.36;100421.59;5094955;28;20019;-66
2022/06/05 01:02:17;;;;;;;13.50;3.28;;;;;;;39.04;7.42;100419.34;5094550;28;20028;-67
2022/06/05 01:04:48;;;;;;;10.63;2.90;;;;;;;39.01;7.62;100414.63;5094706;28;20039;-66
2022/06/05 01:07:15;;;;;;;17.40;3.03;;;;;;;39.02;7.68;100413.34;5094581;28;20032;-67
2022/06/05 01:09:45;;;;;;;17.08;2.95;;;;;;;39.18;7.28;100406.66;5093793;28;20454;-67
2022/06/05 01:12:35;;;;;;;23.13;2.22;;;;;;;38.86;7.17;100410.78;5094416;28;20028;-66
2022/06/05 01:15:20;;;;;;;10.02;1.80;;;;;;;38.42;7.62;100407.97;5094746;28;20024;-66
2022/06/05 01:18:13;;;;;;;11.40;2.10;;;;;;;38.40;7.58;100427.53;5094443;28;20055;-66
2022/06/05 01:21:04;;;;;;;16.27;2.20;;;;;;;37.86;7.69;100420.19;5065476;28;20300;-67
2022/06/05 01:24:01;;;;;;;14.98;2.22;;;;;;;37.75;7.88;100416.94;5094461;28;20028;-66
2022/06/05 01:26:37;;;;;;;19.33;2.38;;;;;;;37.68;7.51;100412.28;5094089;28;20039;-66
2022/06/05 01:29:19;;;;;;;19.45;2.38;;;;;;;37.18;8.14;100424.50;5093013;28;20098;-66
2022/06/05 01:31:56;;;;;;;10.65;1.65;;;;;;;36.89;8.13;100436.75;5094361;28;20032;-66
2022/06/05 01:34:52;;;;;;;13.18;1.75;;;;;;;36.72;7.99;100438.06;5094010;28;20028;-66
2022/06/05 01:37:28;;;;;;;13.68;1.85;;;;;;;36.92;8.12;100430.19;5093893;28;20580;-66
2022/06/05 01:40:07;;;;;;;11.25;1.90;;;;;;;36.90;7.54;100444.00;5092126;28;20044;-66
2022/06/05 01:43:01;;;;;;;20.80;2.05;;;;;;;36.63;7.56;100443.63;5094101;28;20559;-66
2022/06/05 01:45:52;;;;;;;19.90;1.77;;;;;;;36.33;7.95;100461.91;5094033;28;20032;-66
2022/06/05 01:48:37;;;;;;;23.50;2.10;;;;;;;36.13;8.24;100444.25;5092515;28;20043;-66
2022/06/05 01:51:09;;;;;;;13.80;1.60;;;;;;;35.79;8.03;100444.75;5093655;28;20495;-66
2022/06/05 01:53:41;;;;;;;12.70;1.70;;;;;;;35.79;8.07;100445.53;5093989;28;20107;-67
2022/06/05 01:56:18;;;;;;;10.70;1.55;;;;;;;35.46;8.32;100449.66;5093514;28;20024;-66
2022/06/05 01:58:52;;;;;;;10.50;1.80;;;;;;;35.40;8.68;100438.88;5093508;28;20032;-66
2022/06/05 02:01:25;;;;;;;14.00;2.38;;;;;;;35.54;8.81;100448.22;5092681;28;20040;-66
2022/06/05 02:04:12;;;;;;;5.00;1.23;;;;;;;35.27;9.69;100448.47;5093694;28;20478;-66
2022/06/05 02:07:07;;;;;;;17.25;1.80;;;;;;;35.25;9.65;100454.56;5093569;28;20050;-66
2022/06/05 02:09:36;;;;;;;11.20;1.97;;;;;;;35.12;9.59;100464.97;5073132;28;20575;-66
2022/06/05 02:12:08;;;;;;;6.55;1.60;;;;;;;34.99;9.32;100456.38;5092230;28;20137;-66
2022/06/05 02:14:37;;;;;;;11.77;1.70;;;;;;;34.87;9.92;100461.94;5093403;28;20028;-66
2022/06/05 02:17:06;;;;;;;11.73;1.58;;;;;;;34.62;9.85;100471.69;5092171;28;20032;-66
2022/06/05 02:19:34;;;;;;;7.93;1.50;;;;;;;34.60;9.80;100467.72;5092248;28;20051;-65
2022/06/05 02:22:09;;;;;;;7.47;1.38;;;;;;;34.41;9.70;100464.47;5093139;28;20044;-66
2022/06/05 02:24:36;;;;;;;13.52;1.60;;;;;;;34.26;10.02;100474.41;5093480;28;20584;-66
2022/06/05 02:27:06;;;;;;;12.27;2.08;;;;;;;34.06;9.51;100480.03;5091661;28;20089;-67
2022/06/05 02:29:36;;;;;;;7.55;1.50;;;;;;;34.07;9.43;100486.47;5092338;28;20106;-67
2022/06/05 02:32:11;;;;;;;13.52;2.00;;;;;;;33.86;9.66;100476.41;5093204;28;20052;-67
2022/06/05 02:34:55;;;;;;;15.07;2.50;;;;;;;33.77;9.32;100482.56;5093283;28;20536;-66
2022/06/05 02:37:47;;;;;;;14.00;2.17;;;;;;;33.64;9.30;100481.59;5075083;28;20398;-67
2022/06/05 02:40:41;;;;;;;19.63;2.30;;;;;;;33.54;9.57;100488.19;5091445;28;20265;-65
2022/06/05 02:43:21;;;;;;;13.88;2.60;;;;;;;33.26;9.65;100484.59;5093278;28;20042;-67
2022/06/05 02:46:12;;;;;;;11.48;2.10;;;;;;;33.23;9.83;100485.44;5096251;28;20031;-66
2022/06/05 02:48:43;;;;;;;11.48;1.92;;;;;;;33.14;9.35;100481.53;5086252;28;20052;-67
2022/06/05 02:51:15;;;;;;;10.63;1.98;;;;;;;33.04;9.27;100480.50;5097401;28;20054;-65
2022/06/05 02:53:54;;;;;;;11.20;2.08;;;;;;;32.99;9.43;100486.59;5097202;28;20123;-65
2022/06/05 02:56:21;;;;;;;17.02;1.70;;;;;;;33.07;8.61;100484.47;5097097;28;20079;-65
2022/06/05 02:58:50;;;;;;;11.85;1.70;;;;;;;32.96;8.52;100485.41;5079415;28;20118;-65
2022/06/05 03:04:03;;;;;;;12.77;2.05;;;;;;;32.74;9.11;100484.88;5097039;28;20478;-65
2022/06/05 03:06:31;;;;;;;9.75;1.92;;;;;;;32.46;9.44;100493.66;5096748;28;20038;-66
2022/06/05 03:08:58;;;;;;;9.18;2.03;;;;;;;32.71;8.80;100499.81;5095706;28;20081;-65
2022/06/05 03:11:24;;;;;;;13.10;1.95;;;;;;;32.66;9.11;100494.63;5096174;28;20027;-66
2022/06/05 03:13:51;;;;;;;9.15;1.67;;;;;;;32.66;9.28;100502.28;5096768;28;20375;-65
2022/06/05 03:16:18;;;;;;;7.75;1.70;;;;;;;32.46;9.22;100500.09;5096824;28;20524;-66
2022/06/05 03:18:46;;;;;;;9.10;1.40;;;;;;;32.34;9.20;100513.94;5096852;28;20055;-66
2022/06/05 03:21:12;;;;;;;15.27;1.77;;;;;;;32.26;9.54;100517.97;5087512;28;20016;-65
2022/06/05 03:23:39;;;;;;;12.48;1.58;;;;;;;32.26;9.39;100520.78;5081614;28;20028;-65
2022/06/05 03:26:10;;;;;;;15.30;1.95;;;;;;;32.01;9.42;100519.03;5082249;28;20079;-66
2022/06/05 03:28:37;;;;;;;16.85;2.38;;;;;;;31.97;9.51;100526.72;5085466;28;20059;-66
2022/06/05 03:31:06;;;;;;;21.98;2.10;;;;;;;31.89;9.36;100527.97;5091665;28;20028;-66
2022/06/05 03:33:33;;;;;;;12.55;1.88;;;;;;;31.72;9.66;100523.28;5089084;28;20044;-65
2022/06/05 03:36:00;;;;;;;17.13;2.30;;;;;;;31.64;9.47;100521.75;5086216;28;20080;-65
2022/06/05 03:38:27;;;;;;;10.93;1.77;;;;;;;31.40;9.87;100524.31;5086855;28;20044;-65
2022/06/05 03:40:54;;;;;;;17.88;2.30;;;;;;;31.60;9.63;100526.56;5091742;28;20505;-65
2022/06/05 03:43:20;;;;;;;14.48;2.00;;;;;;;31.41;9.67;100513.88;5082845;28;20039;-66
2022/06/05 03:45:47;;;;;;;23.13;2.60;;;;;;;31.34;9.88;100525.97;5084556;28;20032;-66
2022/06/05 03:48:13;;;;;;;21.60;2.80;;;;;;;31.33;9.81;100527.19;5079913;28;20490;-65
2022/06/05 03:50:41;;;;;;;13.80;3.00;;;;;;;31.33;9.74;100527.19;5088053;28;20536;-65
2022/06/05 03:53:08;;;;;;;13.75;2.67;;;;;;;30.97;10.01;100530.16;5088640;28;20035;-66
2022/06/05 03:55:34;;;;;;;19.02;3.42;;;;;;;31.11;10.08;100534.13;5082558;28;20111;-65
2022/06/05 03:58:01;;;;;;;20.95;5.93;;;;;;;31.04;10.19;100528.53;5082651;28;20107;-66
2022/06/05 04:00:28;;;;;;;14.35;2.50;;;;;;;31.48;9.71;100542.72;5085038;28;20027;-66
2022/06/05 04:02:54;;;;;;;12.13;2.35;;;;;;;31.35;9.73;100540.81;5092758;28;20367;-66
2022/06/05 04:05:22;;;;;;;9.13;2.50;;;;;;;31.25;9.50;100534.88;5085870;28;20111;-66
2022/06/05 04:07:49;;;;;;;13.43;3.03;;;;;;;31.26;9.73;100541.28;5081106;28;20029;-66
2022/06/05 04:10:16;;;;;;;10.07;2.40;;;;;;;31.03;10.42;100555.78;5082450;28;20103;-65
2022/06/05 04:12:44;;;;;;;15.82;4.13;;;;;;;31.05;10.08;100546.97;5078759;28;20094;-66
2022/06/05 04:15:12;;;;;;;11.05;1.80;;;;;;;31.45;9.94;100554.00;5087288;28;20040;-66
2022/06/05 04:17:39;;;;;;;11.50;2.00;;;;;;;31.52;10.21;100553.94;5091884;28;20101;-66
2022/06/05 04:20:06;;;;;;;10.25;2.22;;;;;;;31.35;10.03;100555.66;5092060;28;20059;-66
2022/06/05 04:22:38;;;;;;;12.70;2.75;;;;;;;31.15;10.44;100551.72;5089812;28;20032;-66
2022/06/05 04:25:11;;;;;;;20.17;2.72;;;;;;;30.97;10.72;100558.22;5087972;28;20543;-65
2022/06/05 04:27:38;;;;;;;16.45;2.20;;;;;;;31.12;10.89;100552.56;5082048;28;20043;-65
2022/06/05 04:30:05;;;;;;;25.65;2.58;;;;;;;30.81;11.34;100569.13;5077262;28;20517;-66
2022/06/05 04:32:32;;;;;;;20.42;2.30;;;;;;;30.93;11.21;100563.06;5089496;28;20040;-66
2022/06/05 04:34:58;;;;;;;22.80;3.00;;;;;;;30.66;11.48;100559.16;5091458;28;20016;-66
2022/06/05 04:37:25;;;;;;;28.25;2.60;;;;;;;30.82;11.01;100573.53;5077962;28;20035;-65
2022/06/05 04:39:52;;;;;;;31.05;3.35;;;;;;;30.71;11.33;100566.38;5084809;28;20077;-65
2022/06/05 04:42:20;;;;;;;20.80;3.40;;;;;;;30.80;11.42;100567.53;5083893;28;20064;-66
2022/06/05 04:44:47;;;;;;;32.63;2.85;;;;;;;30.64;11.62;100567.97;5058589;28;20027;-66
2022/06/05 04:47:14;;;;;;;14.68;1.83;;;;;;;31.15;11.26;100571.38;5082493;28;20028;-66
2022/06/05 04:49:40;;;;;;;9.18;1.30;;;;;;;31.31;11.00;100570.94;5088518;28;20028;-66
2022/06/05 04:52:07;;;;;;;10.10;1.50;;;;;;;31.08;11.32;100574.25;5080575;28;20395;-66
2022/06/05 04:54:34;;;;;;;24.15;2.05;;;;;;;31.00;11.32;100578.28;5077984;28;20028;-67
2022/06/05 04:57:01;;;;;;;14.05;1.63;;;;;;;31.12;11.34;100578.63;5085558;28;20040;-67
2022/06/05 04:59:27;;;;;;;20.48;2.50;;;;;;;31.11;11.48;100570.59;5079971;28;20525;-68
2022/06/05 05:01:54;;;;;;;14.00;2.40;;;;;;;31.21;11.17;100575.38;5090303;28;20032;-67
2022/06/05 05:04:21;;;;;;;18.70;2.47;;;;;;;31.04;11.39;100576.25;5083050;28;20399;-67
2022/06/05 05:06:49;;;;;;;16.15;3.30;;;;;;;30.82;11.31;100573.53;5094306;28;20107;-66
2022/06/05 05:09:16;;;;;;;16.85;2.90;;;;;;;30.40;11.50;100596.06;5094113;28;20024;-66
2022/06/05 05:11:43;;;;;;;10.27;2.03;;;;;;;30.33;11.71;100594.84;5093943;28;20034;-66
2022/06/05 05:14:10;;;;;;;7.80;2.30;;;;;;;30.19;11.34;100589.28;5093305;28;20106;-66
2022/06/05 05:16:37;;;;;;;8.70;2.33;;;;;;;30.32;11.24;100589.66;5094224;28;20429;-66
2022/06/05 05:19:04;;;;;;;9.68;2.25;;;;;;;30.33;11.32;100586.44;5094473;28;20023;-66
2022/06/05 05:21:33;;;;;;;11.02;1.80;;;;;;;30.34;11.68;100596.47;5094044;28;20032;-66
2022/06/05 05:23:59;;;;;;;7.00;2.10;;;;;;;30.44;11.66;100580.81;5093130;28;20418;-66
2022/06/05 05:26:31;;;;;;;8.10;1.67;;;;;;;30.46;11.71;100588.81;5093813;28;20032;-66
2022/06/05 05:29:00;;;;;;;14.75;1.77;;;;;;;30.20;11.57;100590.06;5094250;28;20028;-66
2022/06/05 05:31:35;;;;;;;7.00;1.70;;;;;;;30.46;11.48;100588.81;5092796;28;20023;-66
2022/06/05 05:34:05;;;;;;;9.00;1.70;;;;;;;30.59;11.44;100592.81;5094135;28;20036;-66
2022/06/05 05:36:32;;;;;;;12.32;2.35;;;;;;;30.30;11.80;100580.84;5094091;28;20054;-66
2022/06/05 05:42:05;;;;;;;11.70;3.30;;;;;;;30.37;11.81;100590.06;5093021;28;20028;-66
2022/06/05 05:44:42;;;;;;;16.92;3.90;;;;;;;30.28;12.05;100586.84;5093512;28;20035;-67
2022/06/05 05:47:18;;;;;;;17.67;4.00;;;;;;;30.12;12.41;100583.66;5090724;28;20028;-67
2022/06/05 05:49:45;;;;;;;22.20;3.72;;;;;;;30.20;12.14;100582.47;5089036;28;20039;-66
2022/06/05 05:52:12;;;;;;;16.00;2.67;;;;;;;30.18;12.11;100579.28;5092697;28;20020;-66
2022/06/05 05:54:39;;;;;;;11.63;2.65;;;;;;;30.23;12.10;100566.84;5093439;28;20482;-66
2022/06/05 05:57:08;;;;;;;12.80;2.75;;;;;;;30.05;12.07;100580.88;5093281;28;20048;-64
2022/06/05 05:59:35;;;;;;;10.98;2.50;;;;;;;29.95;12.22;100576.03;5093758;28;20477;-65
2022/06/05 06:02:05;;;;;;;17.65;5.13;;;;;;;29.74;12.20;100577.63;5093324;28;20016;-65
2022/06/05 06:04:32;;;;;;;16.50;5.22;;;;;;;29.67;12.39;100568.41;5093604;28;20501;-65
2022/06/05 06:06:59;;;;;;;12.95;4.53;;;;;;;29.79;12.64;100568.81;5093392;28;20035;-65
2022/06/05 06:09:26;;;;;;;11.02;3.42;;;;;;;29.72;12.62;100563.22;5093448;28;20039;-65
2022/06/05 06:11:52;;;;;;;6.22;2.30;;;;;;;29.65;12.51;100562.41;5090950;28;20374;-65
2022/06/05 06:14:19;;;;;;;15.10;2.45;;;;;;;29.61;12.79;100556.78;5093402;28;20028;-65
2022/06/05 06:16:46;;;;;;;10.40;2.22;;;;;;;29.59;13.43;100558.38;5093021;28;20050;-65
2022/06/05 06:19:13;;;;;;;9.27;2.03;;;;;;;29.70;13.35;100565.63;5092418;28;20024;-65
2022/06/05 06:21:39;;;;;;;10.80;2.20;;;;;;;29.42;13.69;100559.94;5092547;28;20044;-65
2022/06/05 06:24:06;;;;;;;8.45;2.30;;;;;;;29.32;14.20;100555.94;5079276;28;20039;-67
2022/06/05 06:26:33;;;;;;;13.40;2.83;;;;;;;29.37;12.86;100552.72;5082107;28;20040;-66
2022/06/05 06:29:00;;;;;;;9.13;2.63;;;;;;;29.31;13.50;100559.13;5079424;28;20107;-66
2022/06/05 06:31:27;;;;;;;8.93;1.88;;;;;;;29.32;13.39;100550.31;5076890;28;20076;-66
2022/06/05 06:33:55;;;;;;;7.53;2.10;;;;;;;29.27;13.41;100559.13;5078039;28;20440;-65
2022/06/05 06:36:22;;;;;;;13.52;2.20;;;;;;;29.00;13.73;100550.22;5085170;28;20024;-67
2022/06/05 06:38:48;;;;;;;7.38;2.00;;;;;;;28.91;13.61;100557.41;5085396;28;20467;-65
2022/06/05 06:41:18;;;;;;;5.97;1.75;;;;;;;28.88;14.31;100542.97;5087251;28;20374;-65
2022/06/05 06:43:46;;;;;;;5.50;1.70;;;;;;;28.87;13.38;100554.56;5088498;28;20035;-63
2022/06/05 06:46:14;;;;;;;6.88;1.80;;;;;;;28.61;13.97;100554.81;5076050;28;20025;-64
2022/06/05 06:48:41;;;;;;;8.45;2.05;;;;;;;28.69;13.63;100550.84;5092482;28;20036;-64
2022/06/05 06:51:09;;;;;;;8.82;2.00;;;;;;;28.55;14.36;100546.81;5092724;28;20020;-65
2022/06/05 06:53:37;;;;;;;6.47;2.00;;;;;;;28.40;14.89;100549.91;5093251;28;20177;-64
2022/06/05 06:56:26;;;;;;;5.90;1.70;;;;;;;28.29;15.11;100552.63;5091716;28;20043;-64
2022/06/05 06:58:54;;;;;;;5.60;2.22;;;;;;;28.07;14.59;100556.44;5091819;28;20033;-65
2022/06/05 07:01:20;;;;;;;5.45;1.85;;;;;;;27.92;14.54;100553.53;5091956;28;20517;-65
2022/06/05 07:03:47;;;;;;;5.85;1.63;;;;;;;27.77;15.01;100559.38;5091764;28;20040;-64
2022/06/05 07:06:15;;;;;;;9.00;2.80;;;;;;;27.46;16.96;100567.03;5092792;28;20031;-63
2022/06/05 07:08:44;;;;;;;9.13;2.20;;;;;;;27.27;17.26;100561.63;5093076;28;20040;-64
2022/06/05 07:11:12;;;;;;;7.53;2.58;;;;;;;27.18;16.76;100561.97;5092395;28;20023;-64
2022/06/05 07:13:40;;;;;;;9.65;2.05;;;;;;;27.14;18.67;100566.69;5092957;28;20508;-65
2022/06/05 07:16:08;;;;;;;11.18;2.70;;;;;;;27.00;16.70;100569.31;5092831;28;20465;-64
2022/06/05 07:18:35;;;;;;;13.85;3.13;;;;;;;26.87;16.93;100571.50;5092708;28;20471;-65
2022/06/05 07:21:14;;;;;;;22.10;4.68;;;;;;;26.72;17.73;100561.34;5076466;28;20027;-67
2022/06/05 07:23:41;;;;;;;16.63;3.58;;;;;;;26.57;19.73;100563.16;5081830;28;20036;-62
2022/06/05 07:26:10;;;;;;;13.88;2.22;;;;;;;26.52;18.99;100559.88;5076941;28;20024;-65
2022/06/05 07:28:38;;;;;;;6.97;1.67;;;;;;;26.50;17.44;100560.25;5081019;28;20036;-66
2022/06/05 07:31:09;;;;;;;6.13;1.60;;;;;;;26.75;16.53;100557.78;5081502;28;20124;-66
2022/06/05 07:33:37;;;;;;;4.85;1.40;;;;;;;26.78;17.62;100557.06;5088477;28;20020;-66
2022/06/05 07:36:07;;;;;;;5.45;1.70;;;;;;;26.94;16.23;100545.72;5084321;28;20040;-67
2022/06/05 07:38:35;;;;;;;4.47;1.33;;;;;;;26.95;16.95;100545.31;5085650;28;20024;-67
2022/06/05 07:41:03;;;;;;;7.45;1.80;;;;;;;26.73;18.18;100544.22;5087231;28;20035;-67
2022/06/05 07:43:31;;;;;;;8.60;2.90;;;;;;;27.17;15.91;100540.03;5083591;28;20593;-67
2022/06/05 07:46:08;;;;;;;9.55;2.60;;;;;;;27.01;16.40;100548.59;5091863;28;20056;-67
2022/06/05 07:48:35;;;;;;;9.77;3.00;;;;;;;27.08;15.86;100551.47;5087411;28;20505;-67
2022/06/05 07:56:43;;;;;;;12.20;2.60;;;;;;;27.44;15.80;100561.03;5085489;28;20040;-66
2022/06/05 07:59:10;;;;;;;22.00;2.63;;;;;;;27.02;16.25;100556.59;5093040;28;20055;-67
2022/06/05 08:01:37;;;;;;;20.05;3.88;;;;;;;27.36;15.85;100565.75;5094079;28;20158;-67
2022/06/05 08:04:05;;;;;;;30.10;4.32;;;;;;;27.33;16.07;100563.72;5093126;28;20024;-66
2022/06/05 08:06:34;;;;;;;33.08;6.03;;;;;;;27.35;16.84;100572.50;5093150;28;20036;-66
2022/06/05 08:09:04;;;;;;;40.45;5.93;;;;;;;27.12;17.29;100569.06;5093078;28;20024;-66
2022/06/05 08:11:37;;;;;;;38.08;6.25;;;;;;;26.98;17.35;100574.44;5093937;28;20028;-67
2022/06/05 08:14:04;;;;;;;27.77;5.63;;;;;;;26.86;17.33;100558.75;5076140;28;20487;-67
2022/06/05 08:16:32;;;;;;;24.23;5.18;;;;;;;26.89;17.17;100551.59;5092861;28;20485;-67
2022/06/05 08:19:00;;;;;;;31.48;4.75;;;;;;;26.43;17.66;100560.97;5094455;28;20032;-68
2022/06/05 08:21:27;;;;;;;26.25;4.65;;;;;;;26.14;18.21;100565.25;5093789;28;20906;-67
2022/06/05 08:23:54;;;;;;;30.27;5.63;;;;;;;25.97;18.12;100568.56;5093078;28;20473;-68
2022/06/05 08:26:20;;;;;;;23.45;5.32;;;;;;;25.78;18.77;100568.63;5093756;28;20024;-68
2022/06/05 08:28:47;;;;;;;27.60;5.00;;;;;;;25.50;19.08;100561.38;5094369;28;20024;-68
2022/06/05 08:31:14;;;;;;;33.90;5.68;;;;;;;25.40;19.42;100563.94;5094543;28;20031;-68
2022/06/05 08:33:44;;;;;;;28.25;5.95;;;;;;;25.38;19.35;100557.94;5077934;28;20039;-68
2022/06/05 08:36:15;;;;;;;30.42;5.30;;;;;;;25.49;18.41;100568.09;5094950;28;20035;-70
2022/06/05 08:41:29;;;;;;;30.00;5.00;;;;;;;26.12;17.26;100558.47;5093506;28;20516;-70
2022/06/05 08:44:02;;;;;;;30.00;5.93;;;;;;;26.14;19.33;100556.09;5093625;28;20099;-70
2022/06/05 08:46:51;;;;;;;26.55;5.40;;;;;;;26.10;23.93;100556.06;5093006;28;20398;-69
2022/06/05 08:49:34;;;;;;;29.05;5.13;;;;;;;25.89;26.09;100555.72;5093081;28;20047;-67
2022/06/05 08:52:27;;;;;;;27.58;5.43;;;;;;;25.95;28.21;100559.78;5094479;28;20028;-68
2022/06/05 08:55:10;;;;;;;27.65;5.60;;;;;;;25.74;29.09;100559.44;5093735;28;20542;-68
2022/06/05 08:57:52;;;;;;;29.25;5.40;;;;;;;25.28;29.30;100562.94;5092822;28;20078;-68
2022/06/05 09:00:50;;;;;;;33.88;5.63;;;;;;;25.09;31.28;100562.94;5092933;28;20103;-69
2022/06/05 09:03:58;;;;;;;40.47;5.65;;;;;;;25.03;34.68;100563.63;5077091;28;20066;-68
2022/06/05 09:06:41;;;;;;;25.27;5.10;;;;;;;25.00;37.68;100568.75;5040398;28;20083;-68
2022/06/05 09:09:25;;;;;;;32.03;5.32;;;;;;;24.88;39.01;100560.50;5086193;28;20048;-68
2022/06/05 09:11:58;;;;;;;27.15;5.15;;;;;;;24.91;41.93;100561.75;5084244;28;20047;-69
2022/06/05 09:14:50;;;;;;;27.67;5.40;;;;;;;24.92;42.67;100555.81;5093597;28;20526;-70
2022/06/05 09:17:20;;;;;;;31.92;5.82;;;;;;;24.92;42.61;100563.38;5092399;28;20043;-68
2022/06/05 09:19:49;;;;;;;29.45;5.20;;;;;;;24.85;44.93;100557.66;5094277;28;20086;-71
2022/06/05 09:22:18;;;;;;;27.55;5.30;;;;;;;24.82;46.69;100559.22;5094272;28;20088;-69
2022/06/05 09:25:06;;;;;;;34.67;5.80;;;;;;;24.74;47.68;100563.00;5094711;28;20047;-68
2022/06/05 09:27:59;;;;;;;31.55;6.03;;;;;;;24.68;49.39;100561.69;5098726;28;20052;-67
2022/06/05 09:30:28;;;;;;;34.92;6.15;;;;;;;24.73;49.99;100566.94;5103847;28;20032;-66
2022/06/05 09:33:00;;;;;;;32.42;5.50;;;;;;;24.76;52.06;100562.63;5104294;28;20046;-67
2022/06/05 09:35:43;;;;;;;28.48;5.57;;;;;;;24.59;51.36;100566.63;5097314;28;20024;-68
2022/06/05 09:38:37;;;;;;;24.58;4.78;;;;;;;24.22;53.21;100572.50;5093188;28;20539;-68
2022/06/05 09:41:32;;;;;;;27.05;4.95;;;;;;;24.07;54.13;100567.78;5092429;28;20383;-67
2022/06/05 09:44:24;;;;;;;29.23;5.27;;;;;;;24.15;53.99;100563.22;5078639;28;20391;-68
2022/06/05 09:47:03;;;;;;;29.70;5.05;;;;;;;24.08;53.28;100566.63;5092309;28;20032;-68
2022/06/05 09:49:34;;;;;;;27.17;5.03;;;;;;;24.19;54.47;100564.88;5091875;28;20042;-67
2022/06/05 09:52:24;;;;;;;24.17;6.10;;;;;;;24.21;54.31;100557.00;5092414;28;20069;-67
2022/06/05 09:55:09;;;;;;;34.13;6.78;;;;;;;24.24;54.06;100561.84;5091758;28;20039;-67
2022/06/05 09:58:24;;;;;;;32.67;6.15;;;;;;;24.28;54.17;100562.75;5091238;28;20050;-68
2022/06/05 10:01:19;;;;;;;22.10;6.68;;;;;;;24.24;54.37;100566.63;5092044;28;20032;-67
2022/06/05 10:03:48;;;;;;;27.23;6.90;;;;;;;24.18;55.09;100579.94;5074782;28;20044;-67
2022/06/05 10:06:41;;;;;;;28.30;6.72;;;;;;;24.23;53.98;100576.88;5092764;28;20046;-67
2022/06/05 10:09:11;;;;;;;25.10;6.55;;;;;;;24.07;55.91;100579.69;5093060;28;20536;-68
2022/06/05 10:11:48;;;;;;;25.65;6.38;;;;;;;23.95;54.50;100574.25;5092367;28;20036;-68
2022/06/05 10:14:45;;;;;;;26.20;6.55;;;;;;;23.92;55.22;100576.94;5092944;28;20027;-68
2022/06/05 10:17:31;;;;;;;31.35;6.38;;;;;;;23.91;54.81;100575.31;5092791;28;20553;-68
2022/06/05 10:20:17;;;;;;;;;;;;;;;23.89;56.99;100577.66;5077413;28;20456;-69
2022/06/05 10:22:53;;;;;;;29.40;6.25;;;;;;;23.77;56.55;100573.78;5091246;28;19920;-68
2022/06/05 10:25:28;;;;;;;22.92;6.65;;;;;;;23.77;57.22;100571.00;5092437;28;20032;-68
2022/06/05 10:28:10;;;;;;;22.05;6.15;;;;;;;23.83;58.17;100579.06;5092693;28;20111;-69
2022/06/05 10:30:52;;;;;;;20.25;5.40;;;;;;;23.77;57.10;100579.34;5091101;28;20059;-68
2022/06/05 10:33:40;;;;;;;22.95;5.90;;;;;;;23.88;57.51;100570.47;5092544;28;20040;-68
2022/06/05 10:36:13;;;;;;;23.75;6.03;;;;;;;23.87;57.47;100568.84;5092729;28;20028;-68
2022/06/05 10:39:07;;;;;;;22.75;6.35;;;;;;;23.81;57.06;100577.44;5092400;28;20036;-68
2022/06/05 10:41:57;;;;;;;31.02;7.10;;;;;;;23.92;57.35;100571.38;5091777;28;20040;-68
2022/06/05 10:44:29;;;;;;;21.48;6.43;;;;;;;23.89;56.50;100581.22;5080961;28;20048;-68
2022/06/05 10:47:12;;;;;;;24.40;7.82;;;;;;;23.81;57.37;100574.69;5092547;28;20367;-68
2022/06/05 10:49:55;;;;;;;26.33;9.30;;;;;;;23.72;57.67;100565.75;5091115;28;20028;-68
2022/06/05 10:52:28;;;;;;;26.95;12.13;;;;;;;23.64;57.46;100569.47;5092348;28;20050;-67
2022/06/05 10:54:55;;;;;;;37.38;13.63;;;;;;;23.66;57.34;100569.91;5092166;28;20064;-69
2022/06/05 10:57:34;;;;;;;32.58;14.82;;;;;;;23.71;56.99;100580.78;5092426;28;20109;-68
2022/06/05 11:00:24;;;;;;;32.90;14.55;;;;;;;23.60;56.78;100574.13;5092320;28;20497;-68
2022/06/05 11:03:13;;;;;;;35.65;14.48;;;;;;;23.60;57.10;100584.44;5092385;28;20039;-68
2022/06/05 11:05:55;;;;;;;35.13;13.35;;;;;;;23.64;57.17;100588.09;5093381;28;20371;-68
2022/06/05 11:08:23;;;;;;;28.77;12.82;;;;;;;23.72;56.64;100587.94;5094996;28;20051;-67
2022/06/05 11:14:31;;;;;;;33.78;10.80;;;;;;;23.52;56.68;100588.97;5094734;28;20393;-70
2022/06/05 11:17:29;;;;;;;22.75;10.15;;;;;;;23.52;56.38;100583.41;5096086;28;20119;-68
2022/06/05 11:20:14;;;;;;;24.00;9.00;;;;;;;23.60;56.25;100587.19;5081434;28;20146;-69
2022/06/05 11:22:47;;;;;;;29.88;9.70;;;;;;;23.54;55.52;100589.41;5095704;28;20056;-69
2022/06/05 11:25:25;;;;;;;27.65;8.15;;;;;;;23.54;55.81;100600.50;5095627;28;20040;-70
2022/06/05 11:28:15;;;;;;;26.73;8.00;;;;;;;23.60;55.91;100601.88;5080525;28;20035;-68
2022/06/05 11:30:56;;;;;;;17.48;6.07;;;;;;;23.51;55.98;100602.00;5052347;28;20728;-69
2022/06/05 11:33:31;;;;;;;30.70;6.32;;;;;;;23.50;56.10;100602.34;5091860;28;20045;-69
2022/06/05 11:36:13;;;;;;;15.27;5.22;;;;;;;23.48;54.37;100599.94;5095723;28;20504;-68
2022/06/05 11:38:59;;;;;;;15.88;5.25;;;;;;;23.46;56.38;100612.53;5095499;28;20082;-68
2022/06/05 11:41:49;;;;;;;15.88;5.20;;;;;;;23.43;55.98;100604.94;5094963;28;20450;-68
2022/06/05 11:44:22;;;;;;;17.15;5.15;;;;;;;23.43;56.46;100610.50;5084858;28;20117;-67
2022/06/05 11:47:02;;;;;;;15.82;5.25;;;;;;;23.36;56.38;100594.47;5095343;28;20047;-68
2022/06/05 11:49:52;;;;;;;17.58;5.80;;;;;;;23.41;55.44;100618.34;5095592;28;20055;-67
2022/06/05 11:52:36;;;;;;;17.23;6.55;;;;;;;23.40;55.63;100620.31;5095304;28;20039;-67
2022/06/05 11:55:37;;;;;;;22.85;7.22;;;;;;;23.42;55.53;100625.53;5094114;28;20084;-67
2022/06/05 11:58:32;;;;;;;20.55;7.43;;;;;;;23.36;55.85;100622.19;5081391;28;20040;-67
2022/06/05 12:01:27;;;;;;;18.80;7.75;;;;;;;23.32;55.89;100626.81;5085892;28;20607;-67
2022/06/05 12:04:05;;;;;;;20.23;6.30;;;;;;;23.29;56.44;100624.75;5089019;28;20546;-67
2022/06/05 12:06:45;;;;;;;18.15;6.00;;;;;;;23.30;55.63;100622.78;5093795;28;20032;-67
2022/06/05 12:09:16;;;;;;;19.05;5.50;;;;;;;23.30;56.19;100629.13;5095116;28;20105;-67
2022/06/05 12:12:06;;;;;;;14.88;4.68;;;;;;;23.28;56.01;100631.47;5093259;28;20028;-67
2022/06/05 12:14:49;;;;;;;15.00;4.90;;;;;;;23.25;56.04;100631.38;5094872;28;20059;-68